sensor_id;sensor_type;location;lat;lon;timestamp;temperature;humidity
24176;DHT22;12324;48.146;11.502;2022-08-30T00:00:40;15.90;99.90
24176;DHT22;12324;48.146;11.502;2022-08-30T00:03:25;15.80;99.90
24176;DHT22;12324;48.146;11.502;2022-08-30T00:05:53;15.80;99.90
24176;DHT22;12324;48.146;11.502;2022-08-30T00:08:22;15.80;99.90
24176;DHT22;12324;48.146;11.502;2022-08-30T00:10:48;15.70;99.90
24176;DHT22;12324;48.146;11.502;2022-08-30T00:13:18;15.70;99.90
24176;DHT22;12324;48.146;11.502;2022-08-30T00:15:45;15.70;99.90
24176;DHT22;12324;48.146;11.502;2022-08-30T00:18:13;15.70;99.90
24176;DHT22;12324;48.146;11.502;2022-08-30T00:20:41;15.70;99.90
24176;DHT22;12324;48.146;11.502;2022-08-30T00:23:08;15.70;99.90
24176;DHT22;12324;48.146;11.502;2022-08-30T00:25:34;15.60;99.90
24176;DHT22;12324;48.146;11.502;2022-08-30T00:28:01;15.60;99.90
24176;DHT22;12324;48.146;11.502;2022-08-30T00:30:29;15.60;99.90
24176;DHT22;12324;48.146;11.502;2022-08-30T00:32:56;15.60;99.90
24176;DHT22;12324;48.146;11.502;2022-08-30T00:35:23;15.60;99.90
24176;DHT22;12324;48.146;11.502;2022-08-30T00:37:50;15.60;99.90
24176;DHT22;12324;48.146;11.502;2022-08-30T00:40:18;15.50;99.90
24176;DHT22;12324;48.146;11.502;2022-08-30T00:42:55;15.50;99.90
24176;DHT22;12324;48.146;11.502;2022-08-30T00:45:29;15.50;99.90
24176;DHT22;12324;48.146;11.502;2022-08-30T00:47:57;15.50;99.90
24176;DHT22;12324;48.146;11.502;2022-08-30T00:50:28;15.40;99.90
24176;DHT22;12324;48.146;11.502;2022-08-30T00:53:00;15.40;99.90
24176;DHT22;12324;48.146;11.502;2022-08-30T00:55:28;15.40;99.90
24176;DHT22;12324;48.146;11.502;2022-08-30T00:57:59;15.40;99.90
24176;DHT22;12324;48.146;11.502;2022-08-30T01:00:30;15.40;99.90
24176;DHT22;12324;48.146;11.502;2022-08-30T01:02:57;15.40;99.90
24176;DHT22;12324;48.146;11.502;2022-08-30T01:05:24;15.30;99.90
24176;DHT22;12324;48.146;11.502;2022-08-30T01:07:51;15.30;99.90
24176;DHT22;12324;48.146;11.502;2022-08-30T01:10:18;15.30;99.90
24176;DHT22;12324;48.146;11.502;2022-08-30T01:12:45;15.20;99.90
24176;DHT22;12324;48.146;11.502;2022-08-30T01:15:13;15.20;99.90
24176;DHT22;12324;48.146;11.502;2022-08-30T01:17:42;15.20;99.90
24176;DHT22;12324;48.146;11.502;2022-08-30T01:20:24;15.20;99.90
24176;DHT22;12324;48.146;11.502;2022-08-30T01:23:03;15.20;99.90
24176;DHT22;12324;48.146;11.502;2022-08-30T01:25:33;15.10;99.90
24176;DHT22;12324;48.146;11.502;2022-08-30T01:28:06;15.10;99.90
24176;DHT22;12324;48.146;11.502;2022-08-30T01:30:34;15.10;99.90
24176;DHT22;12324;48.146;11.502;2022-08-30T01:33:05;15.10;99.90
24176;DHT22;12324;48.146;11.502;2022-08-30T01:35:46;15.10;99.90
24176;DHT22;12324;48.146;11.502;2022-08-30T01:38:16;15.10;99.90
24176;DHT22;12324;48.146;11.502;2022-08-30T01:40:43;15.10;99.90
24176;DHT22;12324;48.146;11.502;2022-08-30T01:43:11;15.10;99.90
24176;DHT22;12324;48.146;11.502;2022-08-30T01:45:39;15.10;99.90
24176;DHT22;12324;48.146;11.502;2022-08-30T01:48:07;15.20;99.90
24176;DHT22;12324;48.146;11.502;2022-08-30T01:50:34;15.10;99.90
24176;DHT22;12324;48.146;11.502;2022-08-30T01:53:03;15.10;99.90
24176;DHT22;12324;48.146;11.502;2022-08-30T01:55:30;15.20;99.90
24176;DHT22;12324;48.146;11.502;2022-08-30T01:57:57;15.20;99.90
24176;DHT22;12324;48.146;11.502;2022-08-30T02:00:24;15.20;99.90
24176;DHT22;12324;48.146;11.502;2022-08-30T02:02:51;15.20;99.90
24176;DHT22;12324;48.146;11.502;2022-08-30T02:05:17;15.20;99.90
24176;DHT22;12324;48.146;11.502;2022-08-30T02:07:44;15.10;99.90
24176;DHT22;12324;48.146;11.502;2022-08-30T02:10:11;15.20;99.90
24176;DHT22;12324;48.146;11.502;2022-08-30T02:12:40;15.20;99.90
24176;DHT22;12324;48.146;11.502;2022-08-30T02:15:08;15.20;99.90
24176;DHT22;12324;48.146;11.502;2022-08-30T02:17:35;15.30;99.90
24176;DHT22;12324;48.146;11.502;2022-08-30T02:20:03;15.20;99.90
24176;DHT22;12324;48.146;11.502;2022-08-30T02:22:30;15.20;99.90
24176;DHT22;12324;48.146;11.502;2022-08-30T02:24:57;15.10;99.90
24176;DHT22;12324;48.146;11.502;2022-08-30T02:27:23;15.10;99.90
24176;DHT22;12324;48.146;11.502;2022-08-30T02:29:51;15.00;99.90
24176;DHT22;12324;48.146;11.502;2022-08-30T02:32:18;15.10;99.90
24176;DHT22;12324;48.146;11.502;2022-08-30T02:34:45;15.00;99.90
24176;DHT22;12324;48.146;11.502;2022-08-30T02:37:12;14.90;99.90
24176;DHT22;12324;48.146;11.502;2022-08-30T02:39:40;14.80;99.90
24176;DHT22;12324;48.146;11.502;2022-08-30T02:42:07;14.80;99.90
24176;DHT22;12324;48.146;11.502;2022-08-30T02:44:34;14.80;99.90
24176;DHT22;12324;48.146;11.502;2022-08-30T02:47:01;14.80;99.90
24176;DHT22;12324;48.146;11.502;2022-08-30T02:49:28;14.70;99.90
24176;DHT22;12324;48.146;11.502;2022-08-30T02:52:00;14.60;99.90
24176;DHT22;12324;48.146;11.502;2022-08-30T02:54:27;14.60;99.90
24176;DHT22;12324;48.146;11.502;2022-08-30T02:56:54;14.60;99.90
24176;DHT22;12324;48.146;11.502;2022-08-30T02:59:21;14.60;99.90
24176;DHT22;12324;48.146;11.502;2022-08-30T03:01:48;14.60;99.90
24176;DHT22;12324;48.146;11.502;2022-08-30T03:04:15;14.50;99.90
24176;DHT22;12324;48.146;11.502;2022-08-30T03:06:41;14.50;99.90
24176;DHT22;12324;48.146;11.502;2022-08-30T03:09:09;14.50;99.90
24176;DHT22;12324;48.146;11.502;2022-08-30T03:11:35;14.50;99.90
24176;DHT22;12324;48.146;11.502;2022-08-30T03:14:03;14.50;99.90
24176;DHT22;12324;48.146;11.502;2022-08-30T03:16:29;14.40;99.90
24176;DHT22;12324;48.146;11.502;2022-08-30T03:18:56;14.40;99.90
24176;DHT22;12324;48.146;11.502;2022-08-30T03:21:23;14.40;99.90
24176;DHT22;12324;48.146;11.502;2022-08-30T03:23:50;14.40;99.90
24176;DHT22;12324;48.146;11.502;2022-08-30T03:26:16;14.40;99.90
24176;DHT22;12324;48.146;11.502;2022-08-30T03:28:43;14.40;99.90
24176;DHT22;12324;48.146;11.502;2022-08-30T03:31:10;14.40;99.90
24176;DHT22;12324;48.146;11.502;2022-08-30T03:33:38;14.30;99.90
24176;DHT22;12324;48.146;11.502;2022-08-30T03:36:07;14.30;99.90
24176;DHT22;12324;48.146;11.502;2022-08-30T03:38:35;14.30;99.90
24176;DHT22;12324;48.146;11.502;2022-08-30T03:41:01;14.20;99.90
24176;DHT22;12324;48.146;11.502;2022-08-30T03:43:31;14.20;99.90
24176;DHT22;12324;48.146;11.502;2022-08-30T03:46:00;14.20;99.90
24176;DHT22;12324;48.146;11.502;2022-08-30T03:48:27;14.20;99.90
24176;DHT22;12324;48.146;11.502;2022-08-30T03:50:55;14.20;99.90
24176;DHT22;12324;48.146;11.502;2022-08-30T03:53:22;14.20;99.90
24176;DHT22;12324;48.146;11.502;2022-08-30T03:55:52;14.20;99.90
24176;DHT22;12324;48.146;11.502;2022-08-30T03:58:20;14.10;99.90
24176;DHT22;12324;48.146;11.502;2022-08-30T04:00:47;14.10;99.90
24176;DHT22;12324;48.146;11.502;2022-08-30T04:03:14;14.10;99.90
24176;DHT22;12324;48.146;11.502;2022-08-30T04:05:41;14.10;99.90
24176;DHT22;12324;48.146;11.502;2022-08-30T04:08:08;14.10;99.90
24176;DHT22;12324;48.146;11.502;2022-08-30T04:10:35;14.10;99.90
24176;DHT22;12324;48.146;11.502;2022-08-30T04:13:02;14.00;99.90
24176;DHT22;12324;48.146;11.502;2022-08-30T04:15:28;14.00;99.90
24176;DHT22;12324;48.146;11.502;2022-08-30T04:17:55;14.00;99.90
24176;DHT22;12324;48.146;11.502;2022-08-30T04:20:22;14.00;99.90
24176;DHT22;12324;48.146;11.502;2022-08-30T04:22:50;14.00;99.90
24176;DHT22;12324;48.146;11.502;2022-08-30T04:25:17;14.00;99.90
24176;DHT22;12324;48.146;11.502;2022-08-30T04:27:45;14.00;99.90
24176;DHT22;12324;48.146;11.502;2022-08-30T04:30:13;14.10;99.90
24176;DHT22;12324;48.146;11.502;2022-08-30T04:32:40;14.10;99.90
24176;DHT22;12324;48.146;11.502;2022-08-30T04:35:08;14.20;99.90
24176;DHT22;12324;48.146;11.502;2022-08-30T04:37:36;14.20;99.90
24176;DHT22;12324;48.146;11.502;2022-08-30T04:40:04;14.30;99.90
24176;DHT22;12324;48.146;11.502;2022-08-30T04:42:33;14.30;99.90
24176;DHT22;12324;48.146;11.502;2022-08-30T04:45:06;14.30;99.90
24176;DHT22;12324;48.146;11.502;2022-08-30T04:47:34;14.40;99.90
24176;DHT22;12324;48.146;11.502;2022-08-30T04:50:01;14.40;99.90
24176;DHT22;12324;48.146;11.502;2022-08-30T04:52:29;14.40;99.90
24176;DHT22;12324;48.146;11.502;2022-08-30T04:54:57;14.50;99.90
24176;DHT22;12324;48.146;11.502;2022-08-30T04:57:25;14.50;99.90
24176;DHT22;12324;48.146;11.502;2022-08-30T04:59:52;14.60;99.90
24176;DHT22;12324;48.146;11.502;2022-08-30T05:02:19;14.60;99.90
24176;DHT22;12324;48.146;11.502;2022-08-30T05:04:46;14.70;99.90
24176;DHT22;12324;48.146;11.502;2022-08-30T05:07:33;14.70;99.90
24176;DHT22;12324;48.146;11.502;2022-08-30T05:10:00;14.80;99.90
24176;DHT22;12324;48.146;11.502;2022-08-30T05:12:26;14.90;99.90
24176;DHT22;12324;48.146;11.502;2022-08-30T05:14:53;14.90;99.90
24176;DHT22;12324;48.146;11.502;2022-08-30T05:17:20;14.90;99.90
24176;DHT22;12324;48.146;11.502;2022-08-30T05:19:46;14.90;99.90
24176;DHT22;12324;48.146;11.502;2022-08-30T05:22:13;15.00;99.90
24176;DHT22;12324;48.146;11.502;2022-08-30T05:24:40;15.10;99.90
24176;DHT22;12324;48.146;11.502;2022-08-30T05:27:07;15.10;99.90
24176;DHT22;12324;48.146;11.502;2022-08-30T06:41:26;15.20;99.90
24176;DHT22;12324;48.146;11.502;2022-08-30T06:43:54;17.90;99.90
24176;DHT22;12324;48.146;11.502;2022-08-30T11:52:07;17.90;99.90
24176;DHT22;12324;48.146;11.502;2022-08-30T11:55:03;26.20;99.90
24176;DHT22;12324;48.146;11.502;2022-08-30T12:24:22;26.10;99.90
24176;DHT22;12324;48.146;11.502;2022-08-30T12:26:41;26.30;99.90
24176;DHT22;12324;48.146;11.502;2022-08-30T12:49:40;26.50;99.90
24176;DHT22;12324;48.146;11.502;2022-08-30T12:54:50;26.80;99.90
24176;DHT22;12324;48.146;11.502;2022-08-30T14:11:30;27.00;99.90
24176;DHT22;12324;48.146;11.502;2022-08-30T14:13:57;30.00;86.80
24176;DHT22;12324;48.146;11.502;2022-08-30T14:21:40;31.00;76.80
24176;DHT22;12324;48.146;11.502;2022-08-30T14:34:26;32.60;57.80
24176;DHT22;12324;48.146;11.502;2022-08-30T14:36:53;33.40;53.30
24176;DHT22;12324;48.146;11.502;2022-08-30T14:39:21;33.20;51.00
24176;DHT22;12324;48.146;11.502;2022-08-30T14:41:53;33.00;51.40
24176;DHT22;12324;48.146;11.502;2022-08-30T14:44:21;32.80;51.30
24176;DHT22;12324;48.146;11.502;2022-08-30T14:46:49;32.60;51.80
24176;DHT22;12324;48.146;11.502;2022-08-30T14:49:17;32.30;51.40
24176;DHT22;12324;48.146;11.502;2022-08-30T14:51:45;31.90;53.30
24176;DHT22;12324;48.146;11.502;2022-08-30T14:54:15;31.80;52.00
24176;DHT22;12324;48.146;11.502;2022-08-30T14:56:42;32.20;57.50
24176;DHT22;12324;48.146;11.502;2022-08-30T14:59:09;32.40;53.70
24176;DHT22;12324;48.146;11.502;2022-08-30T15:01:40;33.00;53.70
24176;DHT22;12324;48.146;11.502;2022-08-30T15:04:08;32.90;52.40
24176;DHT22;12324;48.146;11.502;2022-08-30T15:06:36;32.90;52.60
24176;DHT22;12324;48.146;11.502;2022-08-30T15:09:05;32.70;49.80
24176;DHT22;12324;48.146;11.502;2022-08-30T15:11:32;32.60;50.40
24176;DHT22;12324;48.146;11.502;2022-08-30T15:13:59;32.60;51.20
24176;DHT22;12324;48.146;11.502;2022-08-30T15:16:31;33.00;49.50
24176;DHT22;12324;48.146;11.502;2022-08-30T15:18:59;33.30;50.50
24176;DHT22;12324;48.146;11.502;2022-08-30T15:21:40;32.80;49.00
24176;DHT22;12324;48.146;11.502;2022-08-30T15:24:09;32.90;49.50
24176;DHT22;12324;48.146;11.502;2022-08-30T15:26:37;33.00;52.00
24176;DHT22;12324;48.146;11.502;2022-08-30T15:29:07;32.90;49.30
24176;DHT22;12324;48.146;11.502;2022-08-30T15:31:35;32.70;48.10
24176;DHT22;12324;48.146;11.502;2022-08-30T15:34:03;33.20;47.50
24176;DHT22;12324;48.146;11.502;2022-08-30T15:36:32;33.10;49.00
24176;DHT22;12324;48.146;11.502;2022-08-30T15:38:59;33.20;48.30
24176;DHT22;12324;48.146;11.502;2022-08-30T15:41:27;32.80;48.70
24176;DHT22;12324;48.146;11.502;2022-08-30T15:43:56;32.50;48.70
24176;DHT22;12324;48.146;11.502;2022-08-30T15:46:25;32.10;48.90
24176;DHT22;12324;48.146;11.502;2022-08-30T15:48:58;32.10;49.60
24176;DHT22;12324;48.146;11.502;2022-08-30T15:51:26;32.00;51.20
24176;DHT22;12324;48.146;11.502;2022-08-30T15:53:53;31.90;52.10
24176;DHT22;12324;48.146;11.502;2022-08-30T15:56:20;31.80;49.60
24176;DHT22;12324;48.146;11.502;2022-08-30T15:58:46;31.60;50.80
24176;DHT22;12324;48.146;11.502;2022-08-30T16:01:15;31.50;49.50
24176;DHT22;12324;48.146;11.502;2022-08-30T16:03:45;31.30;51.00
24176;DHT22;12324;48.146;11.502;2022-08-30T16:06:18;31.20;52.10
24176;DHT22;12324;48.146;11.502;2022-08-30T16:08:46;30.90;51.40
24176;DHT22;12324;48.146;11.502;2022-08-30T16:11:15;30.80;53.80
24176;DHT22;12324;48.146;11.502;2022-08-30T16:13:43;30.60;53.00
24176;DHT22;12324;48.146;11.502;2022-08-30T16:16:16;30.50;52.40
24176;DHT22;12324;48.146;11.502;2022-08-30T16:18:44;30.70;53.60
24176;DHT22;12324;48.146;11.502;2022-08-30T16:21:28;30.70;54.40
24176;DHT22;12324;48.146;11.502;2022-08-30T16:23:57;30.60;54.60
24176;DHT22;12324;48.146;11.502;2022-08-30T16:26:25;30.90;53.10
24176;DHT22;12324;48.146;11.502;2022-08-30T16:28:53;31.10;52.20
24176;DHT22;12324;48.146;11.502;2022-08-30T16:31:21;30.80;52.80
24176;DHT22;12324;48.146;11.502;2022-08-30T16:33:48;30.50;53.60
24176;DHT22;12324;48.146;11.502;2022-08-30T16:36:19;30.20;54.40
24176;DHT22;12324;48.146;11.502;2022-08-30T16:38:47;30.30;55.00
24176;DHT22;12324;48.146;11.502;2022-08-30T16:41:15;30.20;55.90
24176;DHT22;12324;48.146;11.502;2022-08-30T16:43:48;30.00;56.30
24176;DHT22;12324;48.146;11.502;2022-08-30T16:46:20;29.80;56.70
24176;DHT22;12324;48.146;11.502;2022-08-30T16:48:58;29.20;59.10
24176;DHT22;12324;48.146;11.502;2022-08-30T16:51:29;28.60;62.60
24176;DHT22;12324;48.146;11.502;2022-08-30T16:53:59;28.30;64.80
24176;DHT22;12324;48.146;11.502;2022-08-30T16:56:28;28.10;66.90
24176;DHT22;12324;48.146;11.502;2022-08-30T16:58:57;28.00;70.70
24176;DHT22;12324;48.146;11.502;2022-08-30T17:01:33;27.90;70.50
24176;DHT22;12324;48.146;11.502;2022-08-30T17:04:01;27.80;69.90
24176;DHT22;12324;48.146;11.502;2022-08-30T17:06:28;27.60;71.80
24176;DHT22;12324;48.146;11.502;2022-08-30T17:08:55;27.20;74.40
24176;DHT22;12324;48.146;11.502;2022-08-30T17:11:23;26.90;78.00
24176;DHT22;12324;48.146;11.502;2022-08-30T17:13:50;26.50;81.50
24176;DHT22;12324;48.146;11.502;2022-08-30T17:16:19;26.30;84.20
24176;DHT22;12324;48.146;11.502;2022-08-30T17:18:57;26.10;87.50
24176;DHT22;12324;48.146;11.502;2022-08-30T17:21:27;26.00;90.10
24176;DHT22;12324;48.146;11.502;2022-08-30T17:23:54;25.90;90.60
24176;DHT22;12324;48.146;11.502;2022-08-30T17:26:28;25.60;91.60
24176;DHT22;12324;48.146;11.502;2022-08-30T17:28:57;25.50;93.50
24176;DHT22;12324;48.146;11.502;2022-08-30T17:31:24;25.40;95.40
24176;DHT22;12324;48.146;11.502;2022-08-30T17:33:55;25.30;97.90
24176;DHT22;12324;48.146;11.502;2022-08-30T17:36:30;25.20;98.50
24176;DHT22;12324;48.146;11.502;2022-08-30T17:38:56;25.00;99.90
24176;DHT22;12324;48.146;11.502;2022-08-30T17:41:23;24.80;99.90
24176;DHT22;12324;48.146;11.502;2022-08-30T17:43:50;24.70;99.90
24176;DHT22;12324;48.146;11.502;2022-08-30T17:46:16;24.60;99.90
24176;DHT22;12324;48.146;11.502;2022-08-30T17:48:45;24.40;99.90
24176;DHT22;12324;48.146;11.502;2022-08-30T17:51:12;24.30;99.90
24176;DHT22;12324;48.146;11.502;2022-08-30T17:53:38;24.20;99.90
24176;DHT22;12324;48.146;11.502;2022-08-30T17:56:08;24.10;99.90
24176;DHT22;12324;48.146;11.502;2022-08-30T17:58:35;23.90;99.90
24176;DHT22;12324;48.146;11.502;2022-08-30T18:01:06;23.80;99.90
24176;DHT22;12324;48.146;11.502;2022-08-30T18:03:37;23.60;99.90
24176;DHT22;12324;48.146;11.502;2022-08-30T18:06:05;23.50;99.90
24176;DHT22;12324;48.146;11.502;2022-08-30T18:08:32;23.40;99.90
24176;DHT22;12324;48.146;11.502;2022-08-30T18:11:00;23.30;99.90
24176;DHT22;12324;48.146;11.502;2022-08-30T18:13:27;23.20;99.90
24176;DHT22;12324;48.146;11.502;2022-08-30T18:15:55;23.10;99.90
24176;DHT22;12324;48.146;11.502;2022-08-30T18:18:22;22.90;99.90
24176;DHT22;12324;48.146;11.502;2022-08-30T18:20:49;22.90;99.90
24176;DHT22;12324;48.146;11.502;2022-08-30T18:23:16;22.80;99.90
24176;DHT22;12324;48.146;11.502;2022-08-30T18:25:58;22.70;99.90
24176;DHT22;12324;48.146;11.502;2022-08-30T18:28:25;22.60;99.90
24176;DHT22;12324;48.146;11.502;2022-08-30T18:30:53;22.50;99.90
24176;DHT22;12324;48.146;11.502;2022-08-30T18:33:23;22.40;99.90
24176;DHT22;12324;48.146;11.502;2022-08-30T18:35:50;22.40;99.90
24176;DHT22;12324;48.146;11.502;2022-08-30T18:38:19;22.30;99.90
24176;DHT22;12324;48.146;11.502;2022-08-30T18:41:08;22.30;99.90
24176;DHT22;12324;48.146;11.502;2022-08-30T18:43:36;22.20;99.90
24176;DHT22;12324;48.146;11.502;2022-08-30T18:46:05;22.20;99.90
24176;DHT22;12324;48.146;11.502;2022-08-30T18:48:35;22.10;99.90
24176;DHT22;12324;48.146;11.502;2022-08-30T18:51:08;22.10;99.90
24176;DHT22;12324;48.146;11.502;2022-08-30T18:53:35;22.00;99.90
24176;DHT22;12324;48.146;11.502;2022-08-30T18:56:03;21.90;99.90
24176;DHT22;12324;48.146;11.502;2022-08-30T18:58:29;21.90;99.90
24176;DHT22;12324;48.146;11.502;2022-08-30T19:00:56;21.80;99.90
24176;DHT22;12324;48.146;11.502;2022-08-30T19:03:23;21.80;99.90
24176;DHT22;12324;48.146;11.502;2022-08-30T19:05:50;21.80;99.90
24176;DHT22;12324;48.146;11.502;2022-08-30T19:08:16;21.80;99.90
24176;DHT22;12324;48.146;11.502;2022-08-30T19:10:43;21.80;99.90
24176;DHT22;12324;48.146;11.502;2022-08-30T19:13:10;21.70;99.90
24176;DHT22;12324;48.146;11.502;2022-08-30T19:15:38;21.60;99.90
24176;DHT22;12324;48.146;11.502;2022-08-30T19:18:05;21.60;99.90
24176;DHT22;12324;48.146;11.502;2022-08-30T19:20:44;21.50;99.90
24176;DHT22;12324;48.146;11.502;2022-08-30T19:23:11;21.40;99.90
24176;DHT22;12324;48.146;11.502;2022-08-30T19:25:41;21.30;99.90
24176;DHT22;12324;48.146;11.502;2022-08-30T19:28:10;21.30;99.90
24176;DHT22;12324;48.146;11.502;2022-08-30T19:30:37;21.20;99.90
24176;DHT22;12324;48.146;11.502;2022-08-30T19:33:04;21.10;99.90
24176;DHT22;12324;48.146;11.502;2022-08-30T19:35:32;21.10;99.90
24176;DHT22;12324;48.146;11.502;2022-08-30T19:37:59;21.10;99.90
24176;DHT22;12324;48.146;11.502;2022-08-30T19:40:26;21.00;99.90
24176;DHT22;12324;48.146;11.502;2022-08-30T19:42:53;20.90;99.90
24176;DHT22;12324;48.146;11.502;2022-08-30T19:45:20;20.80;99.90
24176;DHT22;12324;48.146;11.502;2022-08-30T19:47:49;20.60;99.90
24176;DHT22;12324;48.146;11.502;2022-08-30T19:50:16;20.50;99.90
24176;DHT22;12324;48.146;11.502;2022-08-30T19:52:44;20.40;99.90
24176;DHT22;12324;48.146;11.502;2022-08-30T19:55:19;20.30;99.90
24176;DHT22;12324;48.146;11.502;2022-08-30T19:57:55;20.30;99.90
24176;DHT22;12324;48.146;11.502;2022-08-30T20:00:23;20.20;99.90
24176;DHT22;12324;48.146;11.502;2022-08-30T20:02:50;20.20;99.90
24176;DHT22;12324;48.146;11.502;2022-08-30T20:05:18;20.10;99.90
24176;DHT22;12324;48.146;11.502;2022-08-30T20:07:47;20.00;99.90
24176;DHT22;12324;48.146;11.502;2022-08-30T20:10:16;20.00;99.90
24176;DHT22;12324;48.146;11.502;2022-08-30T20:12:46;20.00;99.90
24176;DHT22;12324;48.146;11.502;2022-08-30T20:15:16;19.90;99.90
24176;DHT22;12324;48.146;11.502;2022-08-30T20:17:45;19.90;99.90
24176;DHT22;12324;48.146;11.502;2022-08-30T20:20:35;19.80;99.90
24176;DHT22;12324;48.146;11.502;2022-08-30T20:23:03;19.70;99.90
24176;DHT22;12324;48.146;11.502;2022-08-30T20:25:30;19.70;99.90
24176;DHT22;12324;48.146;11.502;2022-08-30T20:27:57;19.60;99.90
24176;DHT22;12324;48.146;11.502;2022-08-30T20:30:24;19.50;99.90
24176;DHT22;12324;48.146;11.502;2022-08-30T20:32:52;19.40;99.90
24176;DHT22;12324;48.146;11.502;2022-08-30T20:35:19;19.30;99.90
24176;DHT22;12324;48.146;11.502;2022-08-30T20:37:46;19.20;99.90
24176;DHT22;12324;48.146;11.502;2022-08-30T20:40:13;19.10;99.90
24176;DHT22;12324;48.146;11.502;2022-08-30T20:42:42;19.00;99.90
24176;DHT22;12324;48.146;11.502;2022-08-30T20:45:13;19.00;99.90
24176;DHT22;12324;48.146;11.502;2022-08-30T20:47:46;18.90;99.90
24176;DHT22;12324;48.146;11.502;2022-08-30T20:50:17;18.80;99.90
24176;DHT22;12324;48.146;11.502;2022-08-30T20:52:45;18.80;99.90
24176;DHT22;12324;48.146;11.502;2022-08-30T20:55:12;18.70;99.90
24176;DHT22;12324;48.146;11.502;2022-08-30T20:57:39;18.70;99.90
24176;DHT22;12324;48.146;11.502;2022-08-30T21:00:09;18.70;99.90
24176;DHT22;12324;48.146;11.502;2022-08-30T21:02:41;18.60;99.90
24176;DHT22;12324;48.146;11.502;2022-08-30T21:05:16;18.60;99.90
24176;DHT22;12324;48.146;11.502;2022-08-30T21:07:44;18.60;99.90
24176;DHT22;12324;48.146;11.502;2022-08-30T21:10:12;18.50;99.90
24176;DHT22;12324;48.146;11.502;2022-08-30T21:12:39;18.40;99.90
24176;DHT22;12324;48.146;11.502;2022-08-30T21:15:06;18.40;99.90
24176;DHT22;12324;48.146;11.502;2022-08-30T21:17:53;18.40;99.90
24176;DHT22;12324;48.146;11.502;2022-08-30T21:20:20;18.40;99.90
24176;DHT22;12324;48.146;11.502;2022-08-30T21:22:47;18.40;99.90
24176;DHT22;12324;48.146;11.502;2022-08-30T21:25:13;18.40;99.90
24176;DHT22;12324;48.146;11.502;2022-08-30T21:27:40;18.40;99.90
24176;DHT22;12324;48.146;11.502;2022-08-30T21:30:13;18.30;99.90
24176;DHT22;12324;48.146;11.502;2022-08-30T21:32:40;18.30;99.90
24176;DHT22;12324;48.146;11.502;2022-08-30T21:35:08;18.20;99.90
24176;DHT22;12324;48.146;11.502;2022-08-30T21:37:53;18.20;99.90
24176;DHT22;12324;48.146;11.502;2022-08-30T21:40:20;18.20;99.90
24176;DHT22;12324;48.146;11.502;2022-08-30T21:42:47;18.20;99.90
24176;DHT22;12324;48.146;11.502;2022-08-30T21:45:13;18.10;99.90
24176;DHT22;12324;48.146;11.502;2022-08-30T21:47:40;18.10;99.90
24176;DHT22;12324;48.146;11.502;2022-08-30T21:50:08;18.00;99.90
24176;DHT22;12324;48.146;11.502;2022-08-30T21:52:34;18.00;99.90
24176;DHT22;12324;48.146;11.502;2022-08-30T21:55:01;18.00;99.90
24176;DHT22;12324;48.146;11.502;2022-08-30T21:57:28;17.90;99.90
24176;DHT22;12324;48.146;11.502;2022-08-30T21:59:55;18.00;99.90
24176;DHT22;12324;48.146;11.502;2022-08-30T22:02:22;17.90;99.90
24176;DHT22;12324;48.146;11.502;2022-08-30T22:04:49;18.00;99.90
24176;DHT22;12324;48.146;11.502;2022-08-30T22:07:16;17.90;99.90
24176;DHT22;12324;48.146;11.502;2022-08-30T22:09:42;17.90;99.90
24176;DHT22;12324;48.146;11.502;2022-08-30T22:12:10;17.90;99.90
24176;DHT22;12324;48.146;11.502;2022-08-30T22:14:36;17.80;99.90
24176;DHT22;12324;48.146;11.502;2022-08-30T22:17:04;17.80;99.90
24176;DHT22;12324;48.146;11.502;2022-08-30T22:19:31;17.80;99.90
24176;DHT22;12324;48.146;11.502;2022-08-30T22:21:59;17.80;99.90
24176;DHT22;12324;48.146;11.502;2022-08-30T22:24:28;17.80;99.90
24176;DHT22;12324;48.146;11.502;2022-08-30T22:26:59;17.80;99.90
24176;DHT22;12324;48.146;11.502;2022-08-30T22:29:25;17.70;99.90
24176;DHT22;12324;48.146;11.502;2022-08-30T22:31:52;17.60;99.90
24176;DHT22;12324;48.146;11.502;2022-08-30T22:34:19;17.50;99.90
24176;DHT22;12324;48.146;11.502;2022-08-30T22:36:46;17.50;99.90
24176;DHT22;12324;48.146;11.502;2022-08-30T22:39:13;17.50;99.90
24176;DHT22;12324;48.146;11.502;2022-08-30T22:41:41;17.50;99.90
24176;DHT22;12324;48.146;11.502;2022-08-30T22:44:10;17.60;99.90
24176;DHT22;12324;48.146;11.502;2022-08-30T22:46:38;17.60;99.90
24176;DHT22;12324;48.146;11.502;2022-08-30T22:49:07;17.60;99.90
24176;DHT22;12324;48.146;11.502;2022-08-30T22:51:35;17.60;99.90
24176;DHT22;12324;48.146;11.502;2022-08-30T22:54:03;17.60;99.90
24176;DHT22;12324;48.146;11.502;2022-08-30T22:56:32;17.50;99.90
24176;DHT22;12324;48.146;11.502;2022-08-30T22:58:59;17.50;99.90
24176;DHT22;12324;48.146;11.502;2022-08-30T23:01:36;17.50;99.90
24176;DHT22;12324;48.146;11.502;2022-08-30T23:04:05;17.50;99.90
24176;DHT22;12324;48.146;11.502;2022-08-30T23:06:32;17.50;99.90
24176;DHT22;12324;48.146;11.502;2022-08-30T23:09:00;17.50;99.90
24176;DHT22;12324;48.146;11.502;2022-08-30T23:11:27;17.50;99.90
24176;DHT22;12324;48.146;11.502;2022-08-30T23:13:56;17.50;99.90
24176;DHT22;12324;48.146;11.502;2022-08-30T23:16:22;17.50;99.90
24176;DHT22;12324;48.146;11.502;2022-08-30T23:18:50;17.40;99.90
24176;DHT22;12324;48.146;11.502;2022-08-30T23:21:20;17.40;99.90
24176;DHT22;12324;48.146;11.502;2022-08-30T23:23:49;17.50;99.90
24176;DHT22;12324;48.146;11.502;2022-08-30T23:26:35;17.50;99.90
24176;DHT22;12324;48.146;11.502;2022-08-30T23:29:20;17.50;99.90
24176;DHT22;12324;48.146;11.502;2022-08-30T23:32:06;17.50;99.90
24176;DHT22;12324;48.146;11.502;2022-08-30T23:34:51;17.50;99.90
24176;DHT22;12324;48.146;11.502;2022-08-30T23:37:37;17.40;99.90
24176;DHT22;12324;48.146;11.502;2022-08-30T23:40:22;17.40;99.90
24176;DHT22;12324;48.146;11.502;2022-08-30T23:43:09;17.40;99.90
24176;DHT22;12324;48.146;11.502;2022-08-30T23:45:55;17.40;99.90
24176;DHT22;12324;48.146;11.502;2022-08-30T23:48:46;17.50;99.90
24176;DHT22;12324;48.146;11.502;2022-08-30T23:51:32;17.50;99.90
24176;DHT22;12324;48.146;11.502;2022-08-30T23:54:18;17.50;99.90
24176;DHT22;12324;48.146;11.502;2022-08-30T23:57:04;17.50;99.90
24176;DHT22;12324;48.146;11.502;2022-08-30T23:59:50;17.50;99.90
